Time;durP1;ratioP1;P1;durP2;ratioP2;P2;SDS_P1;SDS_P2;PMS_P1;PMS_P2;Temp;Humidity;BMP_temperature;BMP_pressure;BME280_temperature;BME280_humidity;BME280_pressure;Samples;Min_cycle;Max_cycle;Signal;HPM_P1;HPM_P2
2024/04/14 00:00:05;;;;;;;10.00;3.00;;;14.10;60.10;;;;;;5375423;26;20022;-53
2024/04/14 00:02:56;;;;;;;12.32;4.13;;;14.00;60.00;;;;;;5389465;26;20009;-52
2024/04/14 00:05:40;;;;;;;12.18;3.42;;;14.00;60.10;;;;;;5394089;26;20409;-53
2024/04/14 00:08:25;;;;;;;12.27;2.80;;;14.00;60.10;;;;;;5351724;26;20014;-52
2024/04/14 00:11:10;;;;;;;11.27;3.67;;;13.90;60.00;;;;;;5399831;26;20040;-50
2024/04/14 00:13:56;;;;;;;9.48;3.20;;;13.90;60.10;;;;;;5393952;26;20009;-51
2024/04/14 00:16:43;;;;;;;12.15;2.92;;;13.90;60.10;;;;;;5405392;26;20026;-50
2024/04/14 00:19:28;;;;;;;10.75;3.58;;;13.80;60.00;;;;;;5423935;26;20071;-53
2024/04/14 00:22:13;;;;;;;10.45;3.33;;;13.80;60.00;;;;;;5393879;26;20010;-55
2024/04/14 00:24:58;;;;;;;10.50;3.17;;;13.80;60.10;;;;;;5365834;26;20010;-51
2024/04/14 00:27:42;;;;;;;9.13;3.47;;;13.80;60.10;;;;;;5359301;26;20035;-51
2024/04/14 00:30:28;;;;;;;11.05;3.20;;;13.70;60.00;;;;;;5419788;26;20014;-53
2024/04/14 00:33:12;;;;;;;14.88;3.90;;;13.70;60.10;;;;;;5382461;26;20019;-56
2024/04/14 00:36:00;;;;;;;10.25;2.95;;;13.70;60.10;;;;;;5395075;26;20013;-54
2024/04/14 00:38:45;;;;;;;10.45;2.78;;;13.70;60.10;;;;;;5403978;26;20093;-52
2024/04/14 00:41:30;;;;;;;10.90;3.88;;;13.60;60.00;;;;;;5403764;26;20018;-49
2024/04/14 00:44:15;;;;;;;13.07;3.50;;;13.60;60.00;;;;;;5389704;26;20411;-50
2024/04/14 00:47:01;;;;;;;9.80;3.03;;;13.60;60.10;;;;;;5376313;26;20037;-49
2024/04/14 00:49:46;;;;;;;7.78;2.65;;;13.60;60.10;;;;;;5381142;26;20009;-50
2024/04/14 00:52:31;;;;;;;13.85;2.65;;;13.50;60.00;;;;;;5404844;26;20591;-50
2024/04/14 00:55:16;;;;;;;8.75;2.65;;;13.50;60.00;;;;;;5396324;26;20343;-51
2024/04/14 00:58:02;;;;;;;8.50;3.20;;;13.50;60.10;;;;;;5391397;26;20528;-48
2024/04/14 01:00:47;;;;;;;10.32;3.17;;;13.50;60.10;;;;;;5379390;26;20089;-52
2024/04/14 01:03:33;;;;;;;10.82;2.80;;;13.50;60.10;;;;;;5397357;26;20086;-47
2024/04/14 01:06:18;;;;;;;13.10;3.15;;;13.50;60.20;;;;;;5389334;26;20018;-51
2024/04/14 01:09:08;;;;;;;9.23;3.55;;;13.40;60.10;;;;;;5422435;26;20489;-51
2024/04/14 01:11:53;;;;;;;10.13;3.33;;;13.40;60.70;;;;;;5370548;26;20011;-49
2024/04/14 01:14:37;;;;;;;10.32;2.78;;;13.40;60.20;;;;;;5415369;26;20022;-50
2024/04/14 01:17:22;;;;;;;10.70;2.80;;;13.30;60.00;;;;;;5375590;26;20160;-50
2024/04/14 01:20:08;;;;;;;11.02;2.60;;;13.30;60.10;;;;;;5375001;26;20079;-54
2024/04/14 01:22:53;;;;;;;9.80;3.38;;;13.30;60.20;;;;;;5392557;26;20022;-50
2024/04/14 01:25:38;;;;;;;10.05;2.88;;;13.20;60.10;;;;;;5400799;26;20405;-51
2024/04/14 01:28:22;;;;;;;8.57;3.03;;;13.20;60.20;;;;;;5401371;26;20547;-51
2024/04/14 01:31:07;;;;;;;8.10;2.88;;;13.20;60.20;;;;;;5377586;26;20394;-53
2024/04/14 01:33:52;;;;;;;9.57;2.67;;;13.20;60.30;;;;;;5380654;26;20524;-67
2024/04/14 01:36:37;;;;;;;8.38;3.65;;;13.20;60.30;;;;;;5384571;26;20176;-52
2024/04/14 01:39:21;;;;;;;8.13;3.47;;;13.10;60.20;;;;;;5407716;26;20534;-52
2024/04/14 01:42:06;;;;;;;9.48;3.53;;;13.10;60.20;;;;;;5389263;26;20049;-52
2024/04/14 01:44:51;;;;;;;9.75;3.13;;;13.10;60.30;;;;;;5384510;26;20015;-51
2024/04/14 01:47:40;;;;;;;9.48;3.08;;;13.00;60.10;;;;;;5396194;26;20005;-51
2024/04/14 01:50:25;;;;;;;8.13;2.90;;;13.00;60.20;;;;;;5369542;26;20023;-49
2024/04/14 01:53:10;;;;;;;9.32;2.60;;;13.00;60.20;;;;;;5393800;26;20053;-51
2024/04/14 01:55:55;;;;;;;9.68;2.72;;;13.00;60.30;;;;;;5359080;26;20043;-51
2024/04/14 01:58:40;;;;;;;8.15;3.08;;;12.90;60.20;;;;;;5413023;26;20010;-48
2024/04/14 02:01:24;;;;;;;5.95;3.08;;;12.90;60.20;;;;;;5377828;26;20527;-47
2024/04/14 02:04:09;;;;;;;9.35;3.17;;;12.80;60.10;;;;;;5401384;26;20187;-50
2024/04/14 02:06:53;;;;;;;6.25;2.55;;;12.80;60.20;;;;;;5334180;26;20014;-50
2024/04/14 02:09:38;;;;;;;9.52;2.42;;;12.80;60.20;;;;;;5383554;26;20011;-52
2024/04/14 02:12:23;;;;;;;4.60;2.53;;;12.80;60.30;;;;;;5387504;26;20014;-49
2024/04/14 02:15:08;;;;;;;8.55;2.08;;;12.70;60.10;;;;;;5355453;26;20491;-51
2024/04/14 02:17:52;;;;;;;6.57;2.42;;;12.70;60.20;;;;;;5394288;26;20035;-49
2024/04/14 02:20:37;;;;;;;10.20;2.80;;;12.60;60.00;;;;;;5380325;26;20060;-52
2024/04/14 02:23:23;;;;;;;10.13;2.55;;;12.60;60.10;;;;;;5402881;26;20010;-50
2024/04/14 02:26:09;;;;;;;9.23;2.50;;;12.60;60.10;;;;;;5380585;26;21012;-52
2024/04/14 02:28:53;;;;;;;10.68;2.70;;;12.50;60.00;;;;;;5388318;26;20589;-49
2024/04/14 02:31:38;;;;;;;7.75;2.80;;;12.50;60.10;;;;;;5416678;26;20022;-52
2024/04/14 02:34:23;;;;;;;5.93;2.92;;;12.40;59.90;;;;;;5396330;26;20014;-48
2024/04/14 02:37:08;;;;;;;10.38;4.50;;;12.50;60.10;;;;;;5402225;26;20135;-49
2024/04/14 02:39:53;;;;;;;14.05;3.85;;;12.40;60.00;;;;;;5387847;26;20039;-52
2024/04/14 02:42:38;;;;;;;8.73;2.08;;;12.40;60.10;;;;;;5397794;26;20262;-48
2024/04/14 02:45:23;;;;;;;7.80;3.25;;;12.30;59.90;;;;;;5378579;26;20415;-48
2024/04/14 02:48:08;;;;;;;6.07;2.00;;;12.30;60.00;;;;;;5404415;26;20262;-52
2024/04/14 02:50:53;;;;;;;9.25;2.67;;;12.30;60.00;;;;;;5411158;26;20506;-51
2024/04/14 02:53:37;;;;;;;7.32;2.58;;;12.20;59.90;;;;;;5395096;26;20369;-53
2024/04/14 02:56:23;;;;;;;7.85;2.72;;;12.20;59.90;;;;;;5395752;26;20550;-48
2024/04/14 02:59:07;;;;;;;6.20;1.77;;;12.10;59.80;;;;;;5402395;26;20077;-50
2024/04/14 03:01:52;;;;;;;8.43;2.63;;;12.10;59.80;;;;;;5383203;26;20467;-52
2024/04/14 03:04:37;;;;;;;4.38;2.00;;;12.10;59.80;;;;;;5380650;26;20011;-50
2024/04/14 03:07:22;;;;;;;5.03;1.80;;;12.00;59.70;;;;;;5351771;26;20014;-48
2024/04/14 03:10:07;;;;;;;7.13;3.30;;;12.00;59.70;;;;;;5365294;26;20014;-50
2024/04/14 03:12:52;;;;;;;5.38;1.80;;;11.90;59.60;;;;;;5376870;26;20098;-52
2024/04/14 03:15:37;;;;;;;5.50;2.08;;;11.90;59.60;;;;;;5348803;26;20186;-51
2024/04/14 03:18:22;;;;;;;5.10;1.85;;;11.80;59.50;;;;;;5384609;26;20014;-50
2024/04/14 03:21:06;;;;;;;6.13;1.80;;;11.80;59.60;;;;;;5395623;26;20515;-49
2024/04/14 03:23:54;;;;;;;3.92;1.60;;;11.80;59.60;;;;;;5388209;26;20012;-52
2024/04/14 03:26:41;;;;;;;5.45;2.58;;;11.70;59.50;;;;;;5352327;26;20115;-52
2024/04/14 03:29:26;;;;;;;4.70;1.60;;;11.70;59.50;;;;;;5379445;26;20077;-52
2024/04/14 03:32:12;;;;;;;3.80;2.25;;;11.70;59.60;;;;;;5370050;26;20011;-52
2024/04/14 03:34:56;;;;;;;6.55;2.53;;;11.60;59.40;;;;;;5399845;26;20011;-51
2024/04/14 03:37:41;;;;;;;3.58;1.42;;;11.60;59.40;;;;;;5383839;26;20097;-49
2024/04/14 03:40:27;;;;;;;5.18;1.75;;;11.60;59.50;;;;;;5371261;26;20018;-48
2024/04/14 03:43:12;;;;;;;6.22;1.98;;;11.50;59.30;;;;;;5384411;26;20346;-49
2024/04/14 03:45:57;;;;;;;4.22;2.33;;;11.50;59.30;;;;;;5375250;26;20022;-53
2024/04/14 03:48:42;;;;;;;3.63;1.55;;;11.40;59.20;;;;;;5371473;26;20469;-52
2024/04/14 03:51:27;;;;;;;2.72;1.30;;;11.40;59.20;;;;;;5370461;26;20550;-48
2024/04/14 03:54:12;;;;;;;8.02;2.10;;;11.30;59.10;;;;;;5397134;26;20013;-47
2024/04/14 03:56:59;;;;;;;5.32;2.33;;;11.30;59.10;;;;;;5373451;26;20059;-51
2024/04/14 03:59:46;;;;;;;7.15;2.60;;;11.30;59.10;;;;;;5375329;26;20348;-50
2024/04/14 04:02:31;;;;;;;6.88;1.50;;;11.30;59.10;;;;;;5381879;26;20009;-53
2024/04/14 04:05:16;;;;;;;4.07;1.85;;;11.30;59.20;;;;;;5391445;26;20436;-50
2024/04/14 04:08:02;;;;;;;7.05;1.80;;;11.20;59.00;;;;;;5384894;26;20408;-52
2024/04/14 04:10:57;;;;;;;3.55;1.88;;;11.20;59.00;;;;;;5379902;26;20023;-51
2024/04/14 04:13:43;;;;;;;3.72;1.38;;;11.10;58.90;;;;;;5386391;26;20482;-48
2024/04/14 04:16:27;;;;;;;4.25;1.60;;;11.10;59.50;;;;;;5382135;26;20011;-51
2024/04/14 04:19:12;;;;;;;4.18;1.50;;;11.10;58.90;;;;;;5383688;26;20018;-52
2024/04/14 04:21:56;;;;;;;4.05;1.88;;;11.00;58.80;;;;;;5378109;26;20010;-51
2024/04/14 04:24:41;;;;;;;7.00;1.98;;;11.00;58.80;;;;;;5380846;26;20122;-50
2024/04/14 04:27:26;;;;;;;5.78;1.80;;;10.90;58.70;;;;;;5379771;26;20394;-53
2024/04/14 04:30:11;;;;;;;3.63;1.45;;;10.90;58.70;;;;;;5365440;26;20076;-53
2024/04/14 04:32:55;;;;;;;4.18;1.25;;;10.90;58.70;;;;;;5385996;26;20449;-52
2024/04/14 04:35:40;;;;;;;3.17;1.27;;;10.90;58.80;;;;;;5354396;26;20011;-48
2024/04/14 04:38:25;;;;;;;3.67;1.50;;;10.80;58.60;;;;;;5396001;26;20593;-52
2024/04/14 04:41:11;;;;;;;4.13;1.33;;;10.80;58.70;;;;;;5382898;26;20753;-52
2024/04/14 04:43:55;;;;;;;2.47;1.05;;;10.80;58.70;;;;;;5352399;26;20654;-51
2024/04/14 04:46:39;;;;;;;3.83;1.35;;;10.70;58.50;;;;;;5377879;26;20486;-52
2024/04/14 04:49:24;;;;;;;3.90;1.33;;;10.70;58.60;;;;;;5346316;26;20019;-50
2024/04/14 04:52:09;;;;;;;6.90;2.08;;;10.70;58.60;;;;;;5353856;26;20050;-50
2024/04/14 04:54:53;;;;;;;6.03;1.40;;;10.60;59.00;;;;;;5376164;26;20015;-51
2024/04/14 04:57:37;;;;;;;6.22;1.50;;;10.60;58.50;;;;;;5377373;26;20526;-51
2024/04/14 05:00:22;;;;;;;3.05;1.42;;;10.60;58.50;;;;;;5389480;26;20563;-53
2024/04/14 05:03:07;;;;;;;6.75;1.83;;;10.60;59.10;;;;;;5374350;26;20018;-52
2024/04/14 05:06:00;;;;;;;2.97;1.40;;;10.50;58.40;;;;;;5335941;26;20011;-51
2024/04/14 05:08:46;;;;;;;4.45;1.48;;;10.50;58.40;;;;;;5393011;26;20014;-52
2024/04/14 05:11:30;;;;;;;5.07;1.48;;;10.50;58.40;;;;;;5403738;26;20018;-47
2024/04/14 05:14:15;;;;;;;3.20;1.33;;;10.40;58.30;;;;;;5384089;26;20563;-51
2024/04/14 05:17:00;;;;;;;5.57;1.77;;;10.40;58.30;;;;;;5359357;26;20531;-51
2024/04/14 05:19:53;;;;;;;3.83;1.67;;;10.40;58.30;;;;;;5368788;26;20003;-51
2024/04/14 05:22:41;;;;;;;3.80;1.60;;;10.40;58.40;;;;;;5364416;26;20020;-49
2024/04/14 05:25:26;;;;;;;4.00;2.00;;;10.40;58.40;;;;;;5373142;26;20018;-51
2024/04/14 05:28:10;;;;;;;7.70;2.58;;;10.40;58.30;;;;;;5379590;26;20019;-52
2024/04/14 05:30:55;;;;;;;4.68;1.80;;;10.40;58.40;;;;;;5371196;26;20018;-51
2024/04/14 05:33:40;;;;;;;6.28;1.80;;;10.30;58.20;;;;;;5383778;26;20018;-51
2024/04/14 05:36:25;;;;;;;3.08;1.90;;;10.30;58.20;;;;;;5389798;26;20073;-50
2024/04/14 05:39:10;;;;;;;4.30;1.70;;;10.30;58.20;;;;;;5382858;26;20077;-50
2024/04/14 05:41:55;;;;;;;4.72;1.90;;;10.30;58.20;;;;;;5380004;26;20586;-51
2024/04/14 05:44:47;;;;;;;4.07;1.67;;;10.30;58.20;;;;;;5382516;26;20006;-51
2024/04/14 05:47:32;;;;;;;3.60;2.03;;;10.30;58.20;;;;;;5361441;26;20018;-51
2024/04/14 05:50:17;;;;;;;5.13;2.10;;;10.30;58.20;;;;;;5383494;26;20014;-49
2024/04/14 05:53:01;;;;;;;5.22;2.08;;;10.30;58.20;;;;;;5379087;26;20081;-51
2024/04/14 05:55:46;;;;;;;5.38;1.63;;;10.30;58.20;;;;;;5371297;26;20006;-49
2024/04/14 05:58:32;;;;;;;2.70;1.67;;;10.30;58.10;;;;;;5384987;26;20096;-54
2024/04/14 06:01:18;;;;;;;4.43;1.73;;;10.30;58.10;;;;;;5385522;26;20077;-49
2024/04/14 06:04:02;;;;;;;5.15;1.58;;;10.30;58.10;;;;;;5384249;26;20093;-53
2024/04/14 06:06:50;;;;;;;3.85;1.33;;;10.30;58.10;;;;;;5386143;26;20539;-53
2024/04/14 06:09:36;;;;;;;4.10;1.50;;;10.30;58.10;;;;;;5367937;26;20007;-50
2024/04/14 06:12:20;;;;;;;4.35;1.63;;;10.30;58.10;;;;;;5383556;26;20021;-53
2024/04/14 06:15:05;;;;;;;3.13;1.30;;;10.40;58.20;;;;;;5371015;26;20013;-52
2024/04/14 06:17:50;;;;;;;4.07;1.58;;;10.40;58.10;;;;;;5385400;26;20006;-50
2024/04/14 06:20:38;;;;;;;3.75;1.02;;;10.50;58.20;;;;;;5380298;26;20011;-50
2024/04/14 06:23:22;;;;;;;3.53;1.55;;;10.50;58.10;;;;;;5384748;26;20589;-50
2024/04/14 06:26:07;;;;;;;4.40;1.60;;;10.50;58.00;;;;;;5381470;26;20058;-49
2024/04/14 06:28:52;;;;;;;1.65;1.23;;;10.60;58.10;;;;;;5372593;26;20018;-50
2024/04/14 06:31:37;;;;;;;3.03;1.80;;;10.60;58.00;;;;;;5392509;26;20105;-50
2024/04/14 06:34:21;;;;;;;4.20;1.52;;;10.70;58.10;;;;;;5363749;26;20021;-52
2024/04/14 06:37:06;;;;;;;4.50;2.05;;;10.70;58.00;;;;;;5349704;26;20014;-48
2024/04/14 06:39:51;;;;;;;5.90;1.92;;;10.80;58.10;;;;;;5390661;26;20017;-48
2024/04/14 06:42:38;;;;;;;4.20;1.30;;;10.80;58.00;;;;;;5382751;26;20543;-51
2024/04/14 06:45:22;;;;;;;3.92;1.63;;;10.90;58.00;;;;;;5378371;26;20097;-52
2024/04/14 06:48:07;;;;;;;8.30;1.40;;;10.90;57.90;;;;;;5361846;26;20080;-47
2024/04/14 06:50:52;;;;;;;3.55;1.50;;;11.00;58.20;;;;;;5365535;26;20027;-49
2024/04/14 06:53:37;;;;;;;4.18;1.63;;;11.10;58.50;;;;;;5400715;26;20464;-46
2024/04/14 06:56:22;;;;;;;4.55;1.40;;;11.20;58.80;;;;;;5359142;26;20339;-49
2024/04/14 06:59:07;;;;;;;3.08;1.50;;;11.30;59.10;;;;;;5407111;26;20388;-50
2024/04/14 07:01:51;;;;;;;4.28;1.70;;;11.40;59.30;;;;;;5406285;26;20044;-48
2024/04/14 07:04:36;;;;;;;4.10;1.73;;;11.60;59.70;;;;;;5399626;26;20113;-53
2024/04/14 07:07:21;;;;;;;5.88;2.25;;;11.70;59.90;;;;;;5389321;26;20006;-50
2024/04/14 07:10:06;;;;;;;5.50;1.70;;;11.80;60.20;;;;;;5357617;26;20087;-50
2024/04/14 07:12:50;;;;;;;7.20;2.28;;;11.90;60.50;;;;;;5383067;26;20076;-49
2024/04/14 07:15:35;;;;;;;6.30;1.50;;;12.00;60.70;;;;;;5385910;26;20114;-51
2024/04/14 07:18:21;;;;;;;4.53;1.30;;;12.20;61.10;;;;;;5386440;26;20122;-50
2024/04/14 07:21:06;;;;;;;2.90;1.05;;;12.40;61.30;;;;;;5385710;26;20402;-49
2024/04/14 07:23:50;;;;;;;6.40;2.05;;;12.70;61.60;;;;;;5374101;26;20560;-49
2024/04/14 07:26:35;;;;;;;2.90;1.10;;;12.90;61.60;;;;;;5394316;26;20013;-49
2024/04/14 07:29:20;;;;;;;3.13;1.15;;;13.10;61.60;;;;;;5386611;26;20017;-52
2024/04/14 07:32:05;;;;;;;3.28;1.40;;;13.30;61.50;;;;;;5384600;26;20014;-49
2024/04/14 07:34:50;;;;;;;5.60;1.20;;;13.50;61.40;;;;;;5381565;26;20063;-49
2024/04/14 07:37:34;;;;;;;2.78;1.35;;;13.70;61.30;;;;;;5377482;26;20015;-49
2024/04/14 07:40:19;;;;;;;8.65;2.92;;;13.90;61.20;;;;;;5385245;26;20465;-51
2024/04/14 07:43:04;;;;;;;3.28;1.38;;;14.10;61.20;;;;;;5371377;26;20055;-48
2024/04/14 07:45:49;;;;;;;2.33;1.02;;;14.30;61.20;;;;;;5384469;26;20017;-51
2024/04/14 07:48:33;;;;;;;4.65;1.55;;;14.50;61.20;;;;;;5380886;26;20280;-53
2024/04/14 07:51:18;;;;;;;4.07;1.13;;;14.80;61.20;;;;;;5383645;26;20786;-50
2024/04/14 07:54:03;;;;;;;5.20;1.90;;;15.00;61.00;;;;;;5387535;26;20011;-50
2024/04/14 07:56:51;;;;;;;3.03;0.95;;;15.40;60.90;;;;;;5378812;26;20258;-54
2024/04/14 07:59:37;;;;;;;4.20;1.30;;;15.70;60.60;;;;;;5383084;26;20450;-51
2024/04/14 08:02:21;;;;;;;1.98;1.00;;;16.00;60.50;;;;;;5383918;26;20081;-52
2024/04/14 08:05:06;;;;;;;2.88;1.40;;;16.20;60.30;;;;;;5393528;26;20084;-49
2024/04/14 08:07:50;;;;;;;2.92;1.10;;;16.30;60.00;;;;;;5353614;26;20039;-47
2024/04/14 08:10:36;;;;;;;3.40;1.48;;;16.50;60.00;;;;;;5388708;26;20465;-50
2024/04/14 08:13:23;;;;;;;2.33;0.90;;;16.60;59.70;;;;;;5385126;26;20022;-49
2024/04/14 08:16:08;;;;;;;3.65;1.05;;;16.80;59.70;;;;;;5320534;26;20077;-52
2024/04/14 08:18:53;;;;;;;3.42;1.02;;;16.90;59.60;;;;;;5341762;26;20011;-50
2024/04/14 08:21:38;;;;;;;2.50;0.90;;;17.00;59.40;;;;;;5375009;26;20018;-50
2024/04/14 08:24:22;;;;;;;3.67;1.10;;;17.10;59.30;;;;;;5321726;26;20581;-49
2024/04/14 08:27:07;;;;;;;2.92;1.25;;;17.20;59.10;;;;;;5353780;26;20018;-52
2024/04/14 08:29:52;;;;;;;3.33;0.82;;;17.30;58.90;;;;;;5347411;26;20399;-52
2024/04/14 08:32:37;;;;;;;8.85;1.50;;;17.40;58.80;;;;;;5359117;26;20081;-47
2024/04/14 08:35:21;;;;;;;5.70;3.40;;;17.40;58.40;;;;;;5346119;26;20572;-49
2024/04/14 08:38:06;;;;;;;7.57;3.42;;;17.40;58.20;;;;;;5321659;26;20560;-53
2024/04/14 08:40:54;;;;;;;8.00;3.83;;;17.50;58.30;;;;;;5348665;26;20027;-52
2024/04/14 08:43:39;;;;;;;10.23;5.15;;;17.50;58.40;;;;;;5369455;26;20081;-48
2024/04/14 08:46:25;;;;;;;15.68;7.57;;;17.60;59.00;;;;;;5317824;26;20406;-49
2024/04/14 08:49:12;;;;;;;31.33;20.38;;;17.60;59.30;;;;;;5333622;26;20025;-51
2024/04/14 08:51:59;;;;;;;24.60;16.70;;;17.70;59.70;;;;;;5319303;26;20078;-53
2024/04/14 08:54:43;;;;;;;15.23;12.38;;;17.80;59.80;;;;;;5356775;26;20085;-49
2024/04/14 08:57:29;;;;;;;13.13;9.23;;;17.90;59.80;;;;;;5348961;26;20018;-52
2024/04/14 09:00:18;;;;;;;11.77;8.00;;;18.00;59.60;;;;;;5331887;26;20077;-50
2024/04/14 09:03:04;;;;;;;12.48;8.38;;;18.10;59.30;;;;;;5357179;26;20014;-47
2024/04/14 09:05:48;;;;;;;7.90;6.53;;;18.10;58.80;;;;;;5352104;26;20019;-49
2024/04/14 09:08:33;;;;;;;8.65;5.88;;;18.20;58.70;;;;;;5343122;26;20051;-51
2024/04/14 09:11:18;;;;;;;9.95;5.57;;;18.20;58.20;;;;;;5355958;26;20015;-52
2024/04/14 09:14:03;;;;;;;7.78;4.53;;;18.30;58.00;;;;;;5371572;26;20330;-52
2024/04/14 09:16:47;;;;;;;5.57;4.15;;;18.30;57.60;;;;;;5371301;26;20536;-53
2024/04/14 09:19:39;;;;;;;8.20;4.13;;;18.30;57.20;;;;;;5360393;26;20010;-52
2024/04/14 09:22:24;;;;;;;6.85;3.42;;;18.30;56.90;;;;;;5346116;26;20685;-49
2024/04/14 09:25:09;;;;;;;6.68;3.50;;;18.30;56.60;;;;;;5358007;26;20534;-51
2024/04/14 09:28:03;;;;;;;4.50;2.97;;;18.40;56.50;;;;;;5370807;26;20123;-53
2024/04/14 09:30:50;;;;;;;4.60;2.78;;;18.40;56.00;;;;;;5357690;26;20015;-53
2024/04/14 09:33:34;;;;;;;4.55;2.70;;;18.50;55.80;;;;;;5358047;26;20744;-48
2024/04/14 09:36:24;;;;;;;4.68;2.83;;;18.70;55.70;;;;;;5354289;26;20042;-52
2024/04/14 09:39:09;;;;;;;5.47;2.63;;;18.90;55.50;;;;;;5356595;26;20012;-50
2024/04/14 09:41:57;;;;;;;5.63;2.38;;;19.00;55.20;;;;;;5341858;26;20085;-49
2024/04/14 09:44:44;;;;;;;3.72;2.35;;;19.10;54.90;;;;;;5367661;26;20014;-48
2024/04/14 09:47:29;;;;;;;4.35;2.35;;;19.30;54.80;;;;;;5350072;26;20221;-50
2024/04/14 09:50:15;;;;;;;3.85;2.03;;;19.40;54.40;;;;;;5358778;26;20067;-47
2024/04/14 09:53:01;;;;;;;6.07;2.08;;;19.60;54.20;;;;;;5319298;26;20433;-48
2024/04/14 09:55:47;;;;;;;4.55;2.28;;;19.70;53.90;;;;;;5346670;26;20015;-51
2024/04/14 09:58:32;;;;;;;7.35;2.63;;;19.80;53.70;;;;;;5340331;26;20022;-51
2024/04/14 10:01:23;;;;;;;4.20;1.80;;;19.80;53.40;;;;;;5344140;26;20015;-49
2024/04/14 10:04:08;;;;;;;3.88;2.40;;;19.80;53.10;;;;;;5345765;26;20030;-51
2024/04/14 10:06:53;;;;;;;3.08;1.52;;;19.70;52.90;;;;;;5331751;26;20439;-52
2024/04/14 10:09:43;;;;;;;8.35;2.30;;;19.70;52.80;;;;;;5359861;26;20030;-51
2024/04/14 10:12:28;;;;;;;3.30;1.50;;;19.60;52.40;;;;;;5349423;26;20349;-52
2024/04/14 10:15:15;;;;;;;3.28;1.65;;;19.60;52.30;;;;;;5349712;26;20392;-51
2024/04/14 10:18:15;;;;;;;3.55;1.50;;;19.60;52.10;;;;;;5352108;26;20030;-52
2024/04/14 10:21:05;;;;;;;4.97;2.28;;;19.60;51.70;;;;;;5340613;26;20362;-51
2024/04/14 10:23:54;;;;;;;4.43;1.45;;;19.60;51.70;;;;;;5337155;26;20094;-49
2024/04/14 10:26:40;;;;;;;3.85;2.03;;;19.60;51.60;;;;;;5333650;26;20015;-52
2024/04/14 10:29:24;;;;;;;4.68;1.60;;;19.60;51.40;;;;;;5325719;26;20020;-52
2024/04/14 10:32:13;;;;;;;5.53;1.70;;;19.60;51.40;;;;;;5346127;26;20022;-49
2024/04/14 10:34:57;;;;;;;2.88;1.40;;;19.60;51.30;;;;;;5344111;26;20155;-50
2024/04/14 10:37:52;;;;;;;6.50;1.92;;;19.60;51.80;;;;;;5314143;26;20015;-51
2024/04/14 10:40:37;;;;;;;4.28;2.03;;;19.50;50.90;;;;;;5344376;26;20015;-51
2024/04/14 10:43:24;;;;;;;5.22;2.15;;;19.50;51.00;;;;;;5343336;26;20022;-50
2024/04/14 10:46:10;;;;;;;4.78;1.45;;;19.50;50.90;;;;;;5336359;26;20003;-51
2024/04/14 10:48:55;;;;;;;3.15;1.25;;;19.60;51.00;;;;;;5347772;26;20022;-50
2024/04/14 10:51:40;;;;;;;3.50;1.45;;;19.60;50.90;;;;;;5322367;26;20484;-50
2024/04/14 10:54:24;;;;;;;5.10;1.88;;;19.80;51.30;;;;;;5349182;26;20040;-49
2024/04/14 10:57:09;;;;;;;3.92;1.33;;;19.90;51.40;;;;;;5344074;26;20014;-49
2024/04/14 10:59:56;;;;;;;3.75;1.58;;;20.10;51.50;;;;;;5306923;26;20362;-52
2024/04/14 11:02:42;;;;;;;3.63;1.00;;;20.30;51.70;;;;;;5326452;26;20011;-50
2024/04/14 11:05:26;;;;;;;2.45;1.13;;;20.50;51.90;;;;;;5339272;26;20007;-53
2024/04/14 11:08:12;;;;;;;3.53;1.40;;;20.70;51.90;;;;;;5341880;26;20526;-47
2024/04/14 11:10:58;;;;;;;3.78;1.17;;;20.90;51.90;;;;;;5346359;26;20011;-47
2024/04/14 11:13:43;;;;;;;3.75;1.17;;;21.00;51.80;;;;;;5373525;26;20585;-49
2024/04/14 11:16:27;;;;;;;4.15;1.75;;;21.00;51.60;;;;;;5387127;26;20078;-51
2024/04/14 11:19:12;;;;;;;4.10;1.55;;;21.00;51.60;;;;;;5392566;26;20053;-48
2024/04/14 11:21:58;;;;;;;2.85;1.17;;;21.00;51.50;;;;;;5367270;26;20075;-47
2024/04/14 11:24:43;;;;;;;4.35;0.90;;;21.00;51.50;;;;;;5383410;26;20010;-53
2024/04/14 11:27:27;;;;;;;4.25;1.33;;;21.00;51.50;;;;;;5382866;26;20085;-48
2024/04/14 11:30:12;;;;;;;5.05;1.83;;;21.00;51.50;;;;;;5381929;26;20065;-50
2024/04/14 11:32:58;;;;;;;6.15;1.58;;;21.00;51.30;;;;;;5382334;26;20022;-51
2024/04/14 11:35:43;;;;;;;6.13;1.38;;;21.00;51.20;;;;;;5381588;26;20007;-50
2024/04/14 11:38:28;;;;;;;4.57;1.38;;;21.00;51.10;;;;;;5384619;26;20080;-51
2024/04/14 11:41:13;;;;;;;5.15;1.42;;;21.00;51.00;;;;;;5372373;26;20018;-51
2024/04/14 11:43:59;;;;;;;3.22;1.67;;;21.10;51.10;;;;;;5377470;26;20026;-49
2024/04/14 11:46:44;;;;;;;3.47;1.20;;;21.20;51.10;;;;;;5373995;26;20741;-54
2024/04/14 11:49:29;;;;;;;2.35;1.13;;;21.30;51.00;;;;;;5387426;26;20078;-51
2024/04/14 11:52:13;;;;;;;4.07;1.77;;;21.40;51.10;;;;;;5370034;26;20559;-52
2024/04/14 11:54:58;;;;;;;5.20;2.03;;;21.50;51.00;;;;;;5375833;26;20556;-55
2024/04/14 11:57:43;;;;;;;5.35;1.80;;;21.60;51.00;;;;;;5382147;26;20328;-50
2024/04/14 12:00:27;;;;;;;3.90;1.58;;;21.70;51.00;;;;;;5383438;26;20108;-54
2024/04/14 12:03:12;;;;;;;3.95;1.73;;;21.80;50.90;;;;;;5374570;26;20018;-54
2024/04/14 12:05:56;;;;;;;2.88;1.45;;;21.90;50.80;;;;;;5371283;26;20011;-52
2024/04/14 12:08:41;;;;;;;2.88;1.35;;;22.00;50.80;;;;;;5378267;26;20046;-51
2024/04/14 12:11:26;;;;;;;4.20;1.70;;;22.10;50.90;;;;;;5358455;26;20055;-52
2024/04/14 12:14:11;;;;;;;3.58;1.33;;;22.10;50.70;;;;;;5382673;26;20387;-50
2024/04/14 12:16:57;;;;;;;2.42;1.30;;;22.20;50.70;;;;;;5377480;26;20050;-51
2024/04/14 12:19:41;;;;;;;4.65;1.88;;;22.30;50.80;;;;;;5387769;26;20073;-51
2024/04/14 12:22:26;;;;;;;2.47;1.27;;;22.40;50.80;;;;;;5377229;26;20118;-51
2024/04/14 12:25:11;;;;;;;4.60;1.58;;;22.60;51.00;;;;;;5365007;26;20099;-49
2024/04/14 12:27:56;;;;;;;4.53;2.00;;;22.60;50.90;;;;;;5394560;26;20122;-51
2024/04/14 12:30:40;;;;;;;5.47;2.33;;;22.70;51.00;;;;;;5390712;26;20030;-50
2024/04/14 12:33:25;;;;;;;3.63;1.92;;;22.80;51.10;;;;;;5382157;26;20022;-51
2024/04/14 12:36:11;;;;;;;4.63;1.60;;;22.90;51.40;;;;;;5379999;26;20010;-49
2024/04/14 12:38:56;;;;;;;4.63;1.85;;;22.90;51.30;;;;;;5382231;26;20013;-52
2024/04/14 12:41:40;;;;;;;6.78;2.08;;;22.90;51.80;;;;;;5385749;26;20072;-52
2024/04/14 12:44:25;;;;;;;3.45;1.70;;;23.00;51.40;;;;;;5383870;26;20587;-49
2024/04/14 12:47:10;;;;;;;3.30;1.60;;;23.10;51.60;;;;;;5411113;26;20077;-50
2024/04/14 12:49:55;;;;;;;6.65;1.67;;;23.10;51.30;;;;;;5390302;26;20054;-50
2024/04/14 12:52:40;;;;;;;4.75;2.20;;;23.20;51.40;;;;;;5378703;26;20006;-49
2024/04/14 12:55:25;;;;;;;3.05;1.50;;;23.30;51.40;;;;;;5400420;26;20084;-49
2024/04/14 12:58:11;;;;;;;2.70;1.70;;;23.40;51.30;;;;;;5371692;26;20029;-49
2024/04/14 13:00:56;;;;;;;5.57;1.92;;;23.50;51.40;;;;;;5401456;26;20014;-48
2024/04/14 13:03:40;;;;;;;3.55;1.52;;;23.60;51.40;;;;;;5383821;26;20769;-49
2024/04/14 13:06:25;;;;;;;3.33;1.63;;;23.70;51.50;;;;;;5377187;26;20054;-51
2024/04/14 13:09:10;;;;;;;3.45;1.70;;;23.80;51.60;;;;;;5379008;26;20487;-52
2024/04/14 13:11:55;;;;;;;4.30;1.25;;;23.90;51.70;;;;;;5386750;26;20349;-50
2024/04/14 13:14:39;;;;;;;2.75;1.45;;;24.10;52.10;;;;;;5399818;26;20007;-52
2024/04/14 13:17:25;;;;;;;3.00;1.48;;;24.20;52.80;;;;;;5388229;26;20457;-49
2024/04/14 13:20:10;;;;;;;2.05;1.17;;;24.20;52.10;;;;;;5393888;26;20477;-51
2024/04/14 13:22:55;;;;;;;3.65;1.33;;;24.30;52.30;;;;;;5371705;26;20533;-52
2024/04/14 13:25:40;;;;;;;6.28;2.08;;;24.40;52.50;;;;;;5362853;26;20026;-53
2024/04/14 13:28:25;;;;;;;2.42;0.98;;;24.40;52.30;;;;;;5387114;26;20058;-53
2024/04/14 13:31:09;;;;;;;4.07;1.17;;;24.40;52.20;;;;;;5394335;26;20030;-53
2024/04/14 13:33:54;;;;;;;2.80;0.95;;;24.40;52.00;;;;;;5366996;26;20516;-48
2024/04/14 13:36:38;;;;;;;2.17;1.30;;;24.40;51.90;;;;;;5383020;26;20018;-47
2024/04/14 13:39:23;;;;;;;2.97;1.52;;;24.30;51.50;;;;;;5386842;26;20013;-49
2024/04/14 13:42:08;;;;;;;2.35;0.90;;;24.30;51.50;;;;;;5357062;26;20064;-53
2024/04/14 13:44:53;;;;;;;6.72;1.58;;;24.30;51.60;;;;;;5393181;26;20014;-52
2024/04/14 13:47:38;;;;;;;2.55;0.80;;;24.30;51.50;;;;;;5379114;26;20019;-50
2024/04/14 13:50:23;;;;;;;3.03;0.90;;;24.30;51.40;;;;;;5378772;26;20100;-48
2024/04/14 13:53:08;;;;;;;2.95;1.17;;;24.40;51.40;;;;;;5384779;26;20377;-52
2024/04/14 13:55:52;;;;;;;2.03;0.70;;;24.40;51.30;;;;;;5377171;26;20092;-50
2024/04/14 13:58:37;;;;;;;2.95;1.23;;;24.40;51.80;;;;;;5382471;26;20051;-51
2024/04/14 14:01:22;;;;;;;2.63;0.73;;;24.40;51.20;;;;;;5390249;26;20087;-54
2024/04/14 14:04:07;;;;;;;2.28;0.93;;;24.40;51.20;;;;;;5383585;26;20097;-52
2024/04/14 14:06:52;;;;;;;2.10;0.80;;;24.40;51.10;;;;;;5381279;26;20026;-50
2024/04/14 14:09:37;;;;;;;5.30;0.75;;;24.50;51.20;;;;;;5387577;26;20991;-51
2024/04/14 14:12:22;;;;;;;2.28;1.00;;;24.40;50.90;;;;;;5391236;26;20098;-50
2024/04/14 14:15:07;;;;;;;2.33;0.80;;;24.40;50.80;;;;;;5363785;26;20102;-53
2024/04/14 14:17:51;;;;;;;1.25;0.75;;;24.50;50.90;;;;;;5381198;26;20010;-51